Time,TemperatureF,DewpointF,PressureIn,WindDirection,WindDirectionDegrees,WindSpeedMPH,WindSpeedGustMPH,Humidity,HourlyPrecipIn,Conditions,Clouds,dailyrainin,SolarRadiationWatts/m^2,SoftwareType,DateUTC
2013-05-03 00:01:00,57.0,52.0,-100.00,North,7,8.0,13.0,83,0.00,,,0.04,0.000000,,2013-05-03 10:01:00,
2013-05-03 00:32:00,57.0,52.0,-100.00,North,7,8.0,13.0,83,0.00,,,0.04,0.000000,,2013-05-03 10:32:00,
2013-05-03 00:42:00,57.0,52.0,-100.00,North,7,8.0,13.0,83,0.00,,,0.04,0.000000,,2013-05-03 10:42:00,
2013-05-03 00:52:00,57.0,52.0,-100.00,North,7,8.0,13.0,83,0.00,,,0.04,0.000000,,2013-05-03 10:52:00,
2013-05-03 01:01:00,57.0,53.0,-100.00,NNE,12,10.0,14.0,86,0.00,,,0.04,0.000000,,2013-05-03 11:01:00,
2013-05-03 01:32:00,57.0,53.0,-100.00,NNE,12,10.0,14.0,86,0.00,,,0.04,0.000000,,2013-05-03 11:32:00,
2013-05-03 01:42:00,57.0,53.0,-100.00,NNE,12,10.0,14.0,86,0.00,,,0.04,0.000000,,2013-05-03 11:42:00,
2013-05-03 01:52:00,57.0,53.0,-100.00,NNE,12,10.0,14.0,86,0.00,,,0.04,0.000000,,2013-05-03 11:52:00,
2013-05-03 02:01:00,58.0,53.0,-100.00,North,2,8.0,12.0,84,0.00,,,0.04,0.000000,,2013-05-03 12:01:00,
2013-05-03 02:22:00,58.0,53.0,-100.00,North,2,8.0,12.0,84,0.00,,,0.04,0.000000,,2013-05-03 12:22:00,
2013-05-03 02:32:00,58.0,53.0,-100.00,North,2,8.0,12.0,84,0.00,,,0.04,0.000000,,2013-05-03 12:32:00,
2013-05-03 02:42:00,58.0,53.0,-100.00,North,2,8.0,12.0,84,0.00,,,0.04,0.000000,,2013-05-03 12:42:00,
2013-05-03 02:52:00,58.0,53.0,-100.00,North,2,8.0,12.0,84,0.00,,,0.04,0.000000,,2013-05-03 12:52:00,
2013-05-03 03:01:00,58.0,53.0,-100.00,North,9,9.0,13.0,84,0.00,,,0.04,0.000000,,2013-05-03 13:01:00,
2013-05-03 03:32:00,58.0,53.0,-100.00,North,9,9.0,13.0,84,0.00,,,0.04,0.000000,,2013-05-03 13:32:00,
2013-05-03 03:42:00,58.0,53.0,-100.00,North,9,9.0,13.0,84,0.00,,,0.04,0.000000,,2013-05-03 13:42:00,
2013-05-03 03:52:00,58.0,53.0,-100.00,North,9,9.0,13.0,84,0.00,,,0.04,0.000000,,2013-05-03 13:52:00,
2013-05-03 04:01:00,57.0,51.0,-100.00,North,11,8.0,12.0,81,0.00,,,0.04,0.000000,,2013-05-03 14:01:00,
2013-05-03 04:32:00,57.0,51.0,-100.00,North,11,8.0,12.0,81,0.00,,,0.04,0.000000,,2013-05-03 14:32:00,
2013-05-03 04:42:00,57.0,51.0,-100.00,North,11,8.0,12.0,81,0.00,,,0.04,0.000000,,2013-05-03 14:42:00,
2013-05-03 04:52:00,57.0,51.0,-100.00,North,11,8.0,12.0,81,0.00,,,0.04,0.000000,,2013-05-03 14:52:00,
2013-05-03 05:01:00,59.0,53.0,-100.00,NNE,25,8.0,13.0,80,0.00,,,-99.99,0.000000,,2013-05-03 15:01:00,
2013-05-03 05:32:00,59.0,53.0,-100.00,NNE,25,8.0,13.0,80,0.00,,,-99.99,0.000000,,2013-05-03 15:32:00,
2013-05-03 05:43:00,59.0,53.0,-100.00,NNE,25,8.0,13.0,80,0.00,,,-99.99,0.000000,,2013-05-03 15:43:00,
2013-05-03 05:53:00,59.0,53.0,-100.00,NNE,25,8.0,13.0,80,0.00,,,-99.99,0.000000,,2013-05-03 15:53:00,
2013-05-03 06:01:00,59.0,54.0,-100.00,NNE,29,8.0,14.0,84,0.00,,,0.04,1.000000,,2013-05-03 16:01:00,
2013-05-03 06:33:00,59.0,54.0,-100.00,NNE,29,8.0,14.0,84,0.00,,,0.04,1.000000,,2013-05-03 16:33:00,
2013-05-03 06:42:00,59.0,54.0,-100.00,NNE,29,8.0,14.0,84,0.00,,,0.04,1.000000,,2013-05-03 16:42:00,
2013-05-03 06:52:00,59.0,54.0,-100.00,NNE,29,8.0,14.0,84,0.00,,,0.04,1.000000,,2013-05-03 16:52:00,
2013-05-03 07:01:00,65.0,56.0,-100.00,NNE,15,9.0,16.0,73,0.00,,,0.04,130.000000,,2013-05-03 17:01:00,
2013-05-03 07:23:00,65.0,56.0,-100.00,NNE,15,9.0,16.0,73,0.00,,,0.04,130.000000,,2013-05-03 17:23:00,
2013-05-03 07:32:00,65.0,56.0,-100.00,NNE,15,9.0,16.0,73,0.00,,,0.04,130.000000,,2013-05-03 17:32:00,
2013-05-03 07:42:00,65.0,56.0,-100.00,NNE,15,9.0,16.0,73,0.00,,,0.04,130.000000,,2013-05-03 17:42:00,
2013-05-03 07:52:00,65.0,56.0,-100.00,NNE,15,9.0,16.0,73,0.00,,,0.04,130.000000,,2013-05-03 17:52:00,
2013-05-03 08:01:00,68.0,56.0,-100.00,NNE,33,9.0,16.0,65,0.00,,,0.04,334.000000,,2013-05-03 18:01:00,
2013-05-03 08:32:00,68.0,56.0,-100.00,NNE,33,9.0,16.0,65,0.00,,,0.04,334.000000,,2013-05-03 18:32:00,
2013-05-03 08:42:00,68.0,56.0,-100.00,NNE,33,9.0,16.0,65,0.00,,,0.04,334.000000,,2013-05-03 18:42:00,
2013-05-03 08:52:00,68.0,56.0,-100.00,NNE,33,9.0,16.0,65,0.00,,,0.04,334.000000,,2013-05-03 18:52:00,
2013-05-03 09:01:00,70.0,55.0,-100.00,NNE,28,8.0,15.0,59,0.00,,,0.04,521.000000,,2013-05-03 19:01:00,
2013-05-03 09:32:00,70.0,55.0,-100.00,NNE,28,8.0,15.0,59,0.00,,,0.04,521.000000,,2013-05-03 19:32:00,
2013-05-03 09:42:00,70.0,55.0,-100.00,NNE,28,8.0,15.0,59,0.00,,,0.04,521.000000,,2013-05-03 19:42:00,
2013-05-03 09:52:00,70.0,55.0,-100.00,NNE,28,8.0,15.0,59,0.00,,,0.04,521.000000,,2013-05-03 19:52:00,
2013-05-03 10:01:00,73.0,52.0,-100.00,NE,37,5.0,12.0,47,0.00,,,0.04,677.000000,,2013-05-03 20:01:00,
2013-05-03 10:32:00,73.0,52.0,-100.00,NE,37,5.0,12.0,47,0.00,,,0.04,677.000000,,2013-05-03 20:32:00,
2013-05-03 10:42:00,73.0,52.0,-100.00,NE,37,5.0,12.0,47,0.00,,,0.04,677.000000,,2013-05-03 20:42:00,
2013-05-03 10:52:00,73.0,52.0,-100.00,NE,37,5.0,12.0,47,0.00,,,0.04,677.000000,,2013-05-03 20:52:00,
2013-05-03 11:01:00,71.0,59.0,-100.00,ESE,111,15.0,25.0,67,0.00,,,0.04,930.000000,,2013-05-03 21:01:00,
2013-05-03 11:33:00,71.0,59.0,-100.00,ESE,111,15.0,25.0,67,0.00,,,0.04,930.000000,,2013-05-03 21:33:00,
2013-05-03 11:42:00,71.0,59.0,-100.00,ESE,111,15.0,25.0,67,0.00,,,0.04,930.000000,,2013-05-03 21:42:00,
2013-05-03 11:52:00,71.0,59.0,-100.00,ESE,111,15.0,25.0,67,0.00,,,0.04,930.000000,,2013-05-03 21:52:00,
2013-05-03 14:01:00,69.0,56.0,-100.00,SSE,147,13.0,23.0,63,-99.99,,,0.00,502.000000,,2013-05-04 00:01:00,
2013-05-03 14:32:00,69.0,56.0,-100.00,SSE,147,13.0,23.0,63,-99.99,,,0.00,502.000000,,2013-05-04 00:32:00,
2013-05-03 14:42:00,69.0,56.0,-100.00,SSE,147,13.0,23.0,63,-99.99,,,0.00,502.000000,,2013-05-04 00:42:00,
2013-05-03 14:52:00,69.0,56.0,-100.00,SSE,147,13.0,23.0,63,-99.99,,,0.00,502.000000,,2013-05-04 00:52:00,
2013-05-03 15:01:00,69.0,57.0,-100.00,ESE,121,8.0,21.0,66,0.00,,,0.00,596.000000,,2013-05-04 01:01:00,
2013-05-03 15:32:00,69.0,57.0,-100.00,ESE,121,8.0,21.0,66,0.00,,,0.00,596.000000,,2013-05-04 01:32:00,
2013-05-03 15:42:00,69.0,57.0,-100.00,ESE,121,8.0,21.0,66,0.00,,,0.00,596.000000,,2013-05-04 01:42:00,
2013-05-03 15:52:00,69.0,57.0,-100.00,ESE,121,8.0,21.0,66,0.00,,,0.00,596.000000,,2013-05-04 01:52:00,
2013-05-03 16:01:00,67.0,55.0,-100.00,SE,132,7.0,15.0,66,0.00,,,0.00,363.000000,,2013-05-04 02:01:00,
2013-05-03 16:21:00,67.0,55.0,-100.00,SE,132,7.0,15.0,66,0.00,,,0.00,363.000000,,2013-05-04 02:21:00,
2013-05-03 16:32:00,67.0,55.0,-100.00,SE,132,7.0,15.0,66,0.00,,,0.00,363.000000,,2013-05-04 02:32:00,
2013-05-03 16:42:00,67.0,55.0,-100.00,SE,132,7.0,15.0,66,0.00,,,0.00,363.000000,,2013-05-04 02:42:00,
2013-05-03 16:52:00,67.0,55.0,-100.00,SE,132,7.0,15.0,66,0.00,,,0.00,363.000000,,2013-05-04 02:52:00,
2013-05-03 17:01:00,65.0,56.0,-100.00,ESE,110,7.0,13.0,74,0.00,,,0.00,136.000000,,2013-05-04 03:01:00,
2013-05-03 17:22:00,65.0,56.0,-100.00,ESE,110,7.0,13.0,74,0.00,,,0.00,136.000000,,2013-05-04 03:22:00,
2013-05-03 17:33:00,65.0,56.0,-100.00,ESE,110,7.0,13.0,74,0.00,,,0.00,136.000000,,2013-05-04 03:33:00,
2013-05-03 17:43:00,65.0,56.0,-100.00,ESE,110,7.0,13.0,74,0.00,,,0.00,136.000000,,2013-05-04 03:43:00,
2013-05-03 17:52:00,65.0,56.0,-100.00,ESE,110,7.0,13.0,74,0.00,,,0.00,136.000000,,2013-05-04 03:52:00,
2013-05-03 18:01:00,63.0,58.0,-100.00,ESE,106,3.0,10.0,84,0.00,,,0.00,39.000000,,2013-05-04 04:01:00,
2013-05-03 18:33:00,63.0,58.0,-100.00,ESE,106,3.0,10.0,84,0.00,,,0.00,39.000000,,2013-05-04 04:33:00,
2013-05-03 18:43:00,63.0,58.0,-100.00,ESE,106,3.0,10.0,84,0.00,,,0.00,39.000000,,2013-05-04 04:43:00,
2013-05-03 18:52:00,63.0,58.0,-100.00,ESE,106,3.0,10.0,84,0.00,,,0.00,39.000000,,2013-05-04 04:52:00,
2013-05-03 19:01:00,63.0,58.0,-100.00,SW,221,0.0,3.0,84,0.00,,,0.00,8.000000,,2013-05-04 05:01:00,
2013-05-03 19:32:00,63.0,58.0,-100.00,SW,221,0.0,3.0,84,0.00,,,0.00,8.000000,,2013-05-04 05:32:00,
2013-05-03 19:43:00,63.0,58.0,-100.00,SW,221,0.0,3.0,84,0.00,,,0.00,8.000000,,2013-05-04 05:43:00,
2013-05-03 19:52:00,63.0,58.0,-100.00,SW,221,0.0,3.0,84,0.00,,,0.00,8.000000,,2013-05-04 05:52:00,
2013-05-03 20:01:00,62.0,61.0,-100.00,South,182,1.0,5.0,97,0.00,,,0.00,0.000000,,2013-05-04 06:01:00,
2013-05-03 20:22:00,62.0,61.0,-100.00,South,182,1.0,5.0,97,0.00,,,0.00,0.000000,,2013-05-04 06:22:00,
2013-05-03 20:32:00,62.0,61.0,-100.00,South,182,1.0,5.0,97,0.00,,,0.00,0.000000,,2013-05-04 06:32:00,
2013-05-03 20:42:00,62.0,61.0,-100.00,South,182,1.0,5.0,97,0.00,,,0.00,0.000000,,2013-05-04 06:42:00,
2013-05-03 20:52:00,62.0,61.0,-100.00,South,182,1.0,5.0,97,0.00,,,0.00,0.000000,,2013-05-04 06:52:00,
2013-05-03 21:01:00,61.0,60.0,-100.00,NNW,343,3.0,3.0,97,0.00,,,0.00,0.000000,,2013-05-04 07:01:00,
2013-05-03 21:32:00,61.0,60.0,-100.00,NNW,343,3.0,3.0,97,0.00,,,0.00,0.000000,,2013-05-04 07:32:00,
2013-05-03 21:42:00,61.0,60.0,-100.00,NNW,343,3.0,3.0,97,0.00,,,0.00,0.000000,,2013-05-04 07:42:00,
2013-05-03 21:52:00,61.0,60.0,-100.00,NNW,343,3.0,3.0,97,0.00,,,0.00,0.000000,,2013-05-04 07:52:00,
2013-05-03 22:01:00,61.0,58.0,-100.00,NNW,331,4.0,8.0,91,0.00,,,0.00,0.000000,,2013-05-04 08:01:00,
2013-05-03 22:32:00,61.0,58.0,-100.00,NNW,331,4.0,8.0,91,0.00,,,0.00,0.000000,,2013-05-04 08:32:00,
2013-05-03 22:42:00,61.0,58.0,-100.00,NNW,331,4.0,8.0,91,0.00,,,0.00,0.000000,,2013-05-04 08:42:00,
2013-05-03 22:52:00,61.0,58.0,-100.00,NNW,331,4.0,8.0,91,0.00,,,0.00,0.000000,,2013-05-04 08:52:00,
2013-05-03 23:01:00,60.0,56.0,-100.00,North,352,5.0,8.0,87,0.00,,,0.00,0.000000,,2013-05-04 09:01:00,
2013-05-03 23:32:00,60.0,56.0,-100.00,North,352,5.0,8.0,87,0.00,,,0.00,0.000000,,2013-05-04 09:32:00,
2013-05-03 23:42:00,60.0,56.0,-100.00,North,352,5.0,8.0,87,0.00,,,0.00,0.000000,,2013-05-04 09:42:00,
2013-05-03 23:53:00,60.0,56.0,-100.00,North,352,5.0,8.0,87,0.00,,,0.00,0.000000,,2013-05-04 09:53:00,